createdAt,value
2019-04-13T00:01:42.805Z,0.40
2019-04-13T00:04:29.201Z,0.40
2019-04-13T00:06:55.011Z,0.40
2019-04-13T00:09:28.802Z,0.40
2019-04-13T00:12:20.407Z,0.40
2019-04-13T00:14:57.330Z,0.40
2019-04-13T00:17:32.672Z,0.40
2019-04-13T00:20:05.526Z,0.40
2019-04-13T00:22:40.676Z,0.40
2019-04-13T00:25:14.635Z,0.40
2019-04-13T00:27:47.868Z,0.47
2019-04-13T00:30:21.656Z,0.40
2019-04-13T00:32:54.416Z,0.50
2019-04-13T00:35:30.527Z,0.40
2019-04-13T00:38:03.886Z,0.40
2019-04-13T00:40:38.985Z,0.40
2019-04-13T00:43:09.684Z,0.40
2019-04-13T00:45:43.371Z,0.50
2019-04-13T00:48:17.568Z,0.40
2019-04-13T00:50:53.511Z,0.40
2019-04-13T00:53:26.537Z,0.40
2019-04-13T00:56:00.671Z,0.40
2019-04-13T00:58:38.694Z,0.50
2019-04-13T01:01:11.620Z,0.50
2019-04-13T01:03:45.470Z,0.40
2019-04-13T01:06:21.195Z,0.40
2019-04-13T01:08:56.357Z,0.40
2019-04-13T01:11:31.827Z,0.40
2019-04-13T01:14:04.567Z,0.43
2019-04-13T01:16:40.582Z,0.40
2019-04-13T01:19:15.425Z,0.40
2019-04-13T01:21:51.910Z,0.40
2019-04-13T01:24:24.459Z,0.50
2019-04-13T01:26:58.411Z,0.40
2019-04-13T01:29:31.564Z,0.40
2019-04-13T01:32:06.212Z,0.40
2019-04-13T01:34:38.709Z,0.50
2019-04-13T01:37:11.479Z,0.40
2019-04-13T01:39:45.799Z,0.40
2019-04-13T01:42:20.900Z,0.50
2019-04-13T01:44:56.837Z,0.40
2019-04-13T01:47:31.915Z,0.50
2019-04-13T01:50:06.635Z,0.43
2019-04-13T01:52:41.764Z,0.40
2019-04-13T01:55:14.598Z,0.40
2019-04-13T01:57:48.522Z,0.40
2019-04-13T02:00:27.499Z,0.50
2019-04-13T02:03:00.543Z,0.40
2019-04-13T02:05:44.290Z,0.40
2019-04-13T02:08:43.719Z,0.40
2019-04-13T02:11:28.452Z,0.40
2019-04-13T02:14:05.279Z,0.40
2019-04-13T02:16:40.311Z,0.40
2019-04-13T02:19:15.074Z,0.50
2019-04-13T02:21:49.121Z,0.40
2019-04-13T02:24:28.270Z,0.50
2019-04-13T02:27:03.340Z,0.40
2019-04-13T02:29:38.071Z,0.40
2019-04-13T02:32:11.457Z,0.40
2019-04-13T02:34:48.461Z,0.40
2019-04-13T02:37:22.601Z,0.40
2019-04-13T02:39:56.293Z,0.50
2019-04-13T02:42:28.582Z,0.40
2019-04-13T02:45:01.344Z,0.40
2019-04-13T02:47:36.598Z,0.40
2019-04-13T02:50:12.277Z,0.50
2019-04-13T02:52:47.089Z,0.50
2019-04-13T02:55:24.022Z,0.50
2019-04-13T02:57:57.343Z,0.40
2019-04-13T03:00:32.106Z,0.50
2019-04-13T03:03:06.819Z,0.40
2019-04-13T03:05:46.912Z,0.40
2019-04-13T03:08:13.799Z,0.40
2019-04-13T03:10:46.289Z,0.40
2019-04-13T03:13:20.095Z,0.40
2019-04-13T03:16:20.300Z,0.40
2019-04-13T03:19:12.575Z,0.40
2019-04-13T03:21:43.153Z,0.50
2019-04-13T03:24:15.534Z,0.50
2019-04-13T03:26:49.705Z,0.40
2019-04-13T03:29:22.583Z,0.40
2019-04-13T03:31:55.482Z,0.40
2019-04-13T03:34:27.151Z,0.40
2019-04-13T03:37:00.931Z,0.40
2019-04-13T03:39:34.801Z,0.50
2019-04-13T03:42:09.151Z,0.40
2019-04-13T03:44:43.903Z,0.40
2019-04-13T03:47:17.567Z,0.40
2019-04-13T03:49:48.930Z,0.50
2019-04-13T03:52:21.170Z,0.50
2019-04-13T03:54:52.271Z,0.40
2019-04-13T03:57:23.024Z,0.40
2019-04-13T03:59:58.017Z,0.50
2019-04-13T04:02:36.239Z,0.40
2019-04-13T04:05:10.407Z,0.50
2019-04-13T04:07:50.734Z,0.40
2019-04-13T04:10:26.887Z,0.40
2019-04-13T04:12:59.178Z,0.50
2019-04-13T04:15:31.748Z,0.40
2019-04-13T04:18:05.374Z,0.40
2019-04-13T04:20:44.080Z,0.40
2019-04-13T04:23:17.759Z,0.40
2019-04-13T04:25:49.225Z,0.40
2019-04-13T04:28:26.528Z,0.40
2019-04-13T04:31:01.073Z,0.50
2019-04-13T04:33:36.514Z,0.40
2019-04-13T04:36:23.181Z,0.40
2019-04-13T04:38:45.754Z,0.40
2019-04-13T04:41:20.079Z,0.40
2019-04-13T04:43:52.453Z,0.40
2019-04-13T04:46:25.681Z,0.47
2019-04-13T04:49:03.618Z,0.40
2019-04-13T04:51:36.066Z,0.40
2019-04-13T04:54:09.807Z,0.40
2019-04-13T04:56:46.194Z,0.40
2019-04-13T04:59:18.566Z,0.40
2019-04-13T05:01:52.547Z,0.40
2019-04-13T05:04:25.314Z,0.40
2019-04-13T05:06:57.546Z,0.40
2019-04-13T05:09:32.226Z,0.50
2019-04-13T05:12:08.474Z,0.50
2019-04-13T05:14:39.863Z,0.40
2019-04-13T05:17:12.606Z,0.40
2019-04-13T05:19:43.227Z,0.50
2019-04-13T05:22:26.246Z,0.40
2019-04-13T05:24:54.063Z,0.50
2019-04-13T05:27:27.525Z,0.40
2019-04-13T05:29:58.241Z,0.40
2019-04-13T05:32:29.518Z,0.40
2019-04-13T05:35:03.252Z,0.43
2019-04-13T05:37:34.580Z,0.40
2019-04-13T05:40:08.928Z,0.40
2019-04-13T05:42:41.224Z,0.40
2019-04-13T05:45:15.935Z,0.40
2019-04-13T05:47:51.360Z,0.40
2019-04-13T05:50:25.127Z,0.40
2019-04-13T05:52:58.883Z,0.40
2019-04-13T05:55:31.622Z,0.40
2019-04-13T05:58:03.988Z,0.40
2019-04-13T06:00:36.831Z,0.40
2019-04-13T06:03:12.846Z,0.40
2019-04-13T06:05:47.304Z,0.40
2019-04-13T06:08:24.018Z,0.40
2019-04-13T06:10:55.320Z,0.30
2019-04-13T06:13:27.912Z,0.40
2019-04-13T06:16:05.583Z,0.40
2019-04-13T06:18:36.097Z,0.40
2019-04-13T06:21:09.156Z,0.40
2019-04-13T06:23:42.907Z,0.40
2019-04-13T06:26:15.245Z,0.40
2019-04-13T06:28:50.492Z,0.30
2019-04-13T06:31:52.753Z,0.40
2019-04-13T06:34:43.235Z,0.40
2019-04-13T06:37:18.321Z,0.33
2019-04-13T06:39:54.636Z,0.30
2019-04-13T06:42:29.035Z,0.30
2019-04-13T06:45:01.220Z,0.40
2019-04-13T06:47:32.497Z,0.50
2019-04-13T06:50:02.568Z,0.30
2019-04-13T06:52:35.786Z,0.30
2019-04-13T06:55:04.310Z,0.40
2019-04-13T06:57:56.370Z,0.40
2019-04-13T07:00:30.183Z,0.30
2019-04-13T07:03:03.146Z,0.30
2019-04-13T07:05:38.332Z,0.30
2019-04-13T07:08:21.994Z,0.40
2019-04-13T07:11:17.754Z,0.30
2019-04-13T07:13:57.376Z,0.30
2019-04-13T07:16:34.783Z,0.30
2019-04-13T07:19:09.038Z,0.40
2019-04-13T07:21:40.560Z,0.40
2019-04-13T07:24:10.847Z,0.40
2019-04-13T07:26:46.018Z,0.30
2019-04-13T07:29:18.756Z,0.30
2019-04-13T07:31:53.990Z,0.30
2019-04-13T07:34:29.149Z,0.30
2019-04-13T07:37:03.810Z,0.40
2019-04-13T07:39:37.795Z,0.30
2019-04-13T07:42:11.967Z,0.40
2019-04-13T07:45:11.848Z,0.40
2019-04-13T07:48:06.663Z,0.30
2019-04-13T07:51:03.817Z,0.30
2019-04-13T07:53:40.487Z,0.30
2019-04-13T07:56:16.328Z,0.27
2019-04-13T07:58:51.396Z,0.40
2019-04-13T08:01:24.607Z,0.30
2019-04-13T08:03:56.747Z,0.40
2019-04-13T08:06:29.759Z,0.40
2019-04-13T08:09:03.009Z,0.30
2019-04-13T08:11:39.329Z,0.20
2019-04-13T08:14:29.759Z,0.27
2019-04-13T08:17:06.450Z,0.30
2019-04-13T08:19:48.703Z,0.20
2019-04-13T08:22:18.050Z,0.30
2019-04-13T08:24:50.851Z,0.30
2019-04-13T08:27:22.946Z,0.20
2019-04-13T08:29:57.827Z,0.40
2019-04-13T08:32:34.788Z,0.20
2019-04-13T08:35:07.558Z,0.30
2019-04-13T08:37:52.701Z,0.20
2019-04-13T08:40:16.737Z,0.20
2019-04-13T08:42:49.194Z,0.30
2019-04-13T08:45:20.312Z,0.20
2019-04-13T08:47:51.887Z,0.20
2019-04-13T08:50:26.795Z,0.20
2019-04-13T08:53:00.063Z,0.30
2019-04-13T08:55:33.429Z,0.30
2019-04-13T08:58:05.142Z,0.20
2019-04-13T09:00:39.031Z,0.20
2019-04-13T09:03:13.555Z,0.20
2019-04-13T09:05:40.760Z,0.20
2019-04-13T09:08:14.169Z,0.20
2019-04-13T09:10:43.731Z,0.20
2019-04-13T09:13:15.898Z,0.20
2019-04-13T09:15:51.231Z,0.20
2019-04-13T09:18:51.572Z,0.20
2019-04-13T09:21:47.688Z,0.30
2019-04-13T09:24:19.488Z,0.20
2019-04-13T09:26:53.970Z,0.30
2019-04-13T09:29:29.862Z,0.30
2019-04-13T09:32:02.087Z,0.27
2019-04-13T09:34:34.899Z,0.20
2019-04-13T09:37:06.018Z,0.20
2019-04-13T09:39:40.709Z,0.30
2019-04-13T09:42:14.521Z,0.20
2019-04-13T09:44:47.440Z,0.20
2019-04-13T09:47:26.506Z,0.20
2019-04-13T09:50:00.877Z,0.20
2019-04-13T09:52:33.623Z,0.20
2019-04-13T09:55:07.182Z,0.20
2019-04-13T09:57:42.380Z,0.20
2019-04-13T10:00:15.326Z,0.20
2019-04-13T10:02:46.949Z,0.20
2019-04-13T10:05:20.907Z,0.27
2019-04-13T10:07:51.637Z,0.20
2019-04-13T10:10:25.270Z,0.20
2019-04-13T10:13:06.244Z,0.20
2019-04-13T10:16:01.292Z,0.10
2019-04-13T10:18:55.288Z,0.20
2019-04-13T10:21:31.135Z,0.30
2019-04-13T10:24:05.055Z,0.20
2019-04-13T10:26:38.527Z,0.20
2019-04-13T10:29:16.342Z,0.20
2019-04-13T10:31:50.115Z,0.20
2019-04-13T10:34:22.918Z,0.20
2019-04-13T10:36:53.526Z,0.20
2019-04-13T10:39:24.214Z,0.20
2019-04-13T10:41:55.642Z,0.20
2019-04-13T10:44:32.274Z,0.20
2019-04-13T10:47:28.495Z,0.20
2019-04-13T10:50:24.182Z,0.20
2019-04-13T10:52:56.899Z,0.20
2019-04-13T10:55:28.536Z,0.20
2019-04-13T10:58:04.543Z,0.20
2019-04-13T11:00:38.208Z,0.20
2019-04-13T11:03:13.387Z,0.27
2019-04-13T11:05:47.930Z,0.20
2019-04-13T11:08:20.348Z,0.20
2019-04-13T11:10:55.115Z,0.20
2019-04-13T11:13:27.908Z,0.20
2019-04-13T11:15:57.991Z,0.20
2019-04-13T11:18:29.543Z,0.30
2019-04-13T11:21:03.264Z,0.20
2019-04-13T11:23:44.939Z,0.20
2019-04-13T11:26:14.199Z,0.30
2019-04-13T11:28:44.886Z,0.20
2019-04-13T11:31:14.946Z,0.20
2019-04-13T11:33:44.740Z,0.30
2019-04-13T11:36:15.391Z,0.20
2019-04-13T11:38:48.314Z,0.20
2019-04-13T11:41:44.131Z,0.20
2019-04-13T11:44:43.169Z,0.20
2019-04-13T11:47:40.838Z,0.27
2019-04-13T11:50:29.758Z,0.20
2019-04-13T11:53:02.597Z,0.20
2019-04-13T11:55:36.734Z,0.20
2019-04-13T11:58:19.674Z,0.20
2019-04-13T12:01:07.056Z,0.20
2019-04-13T12:03:58.115Z,0.20
2019-04-13T12:07:01.603Z,0.20
2019-04-13T12:10:03.396Z,0.20
2019-04-13T12:12:55.671Z,0.20
2019-04-13T12:15:46.275Z,0.20
2019-04-13T12:18:41.420Z,0.20
2019-04-13T12:21:42.894Z,0.20
2019-04-13T12:24:19.390Z,0.20
2019-04-13T12:26:54.247Z,0.20
2019-04-13T12:29:30.854Z,0.20
2019-04-13T12:32:08.155Z,0.20
2019-04-13T12:34:44.866Z,0.20
2019-04-13T12:37:18.055Z,0.30
2019-04-13T12:40:02.765Z,0.20
2019-04-13T12:42:30.337Z,0.20
2019-04-13T12:45:03.562Z,0.20
2019-04-13T12:47:33.513Z,0.20
2019-04-13T12:50:03.772Z,0.17
2019-04-13T12:52:38.759Z,0.20
2019-04-13T12:55:14.043Z,0.20
2019-04-13T12:57:48.773Z,0.20
2019-04-13T13:00:33.575Z,0.20
2019-04-13T13:03:08.775Z,0.20
2019-04-13T13:05:39.251Z,0.20
2019-04-13T13:08:10.459Z,0.20
2019-04-13T13:10:42.764Z,0.20
2019-04-13T13:13:16.826Z,0.20
2019-04-13T13:15:47.734Z,0.20
2019-04-13T13:18:17.790Z,0.20
2019-04-13T13:20:47.846Z,0.20
2019-04-13T13:23:18.135Z,0.20
2019-04-13T13:25:51.873Z,0.30
2019-04-13T13:28:24.863Z,0.20
2019-04-13T13:30:58.242Z,0.20
2019-04-13T13:33:33.254Z,0.20
2019-04-13T13:36:06.535Z,0.20
2019-04-13T13:38:41.219Z,0.20
2019-04-13T13:41:13.755Z,0.20
2019-04-13T13:43:47.282Z,0.20
2019-04-13T13:46:17.543Z,0.20
2019-04-13T13:48:47.351Z,0.20
2019-04-13T13:51:20.615Z,0.20
2019-04-13T13:53:50.506Z,0.20
2019-04-13T13:56:22.789Z,0.20
2019-04-13T13:59:03.538Z,0.20
2019-04-13T14:01:47.624Z,0.27
2019-04-13T14:04:22.437Z,0.20
2019-04-13T14:07:00.498Z,0.20
2019-04-13T14:09:32.264Z,0.20
2019-04-13T14:12:09.400Z,0.20
2019-04-13T14:14:45.130Z,0.20
2019-04-13T14:17:18.962Z,0.20
2019-04-13T14:19:54.622Z,0.20
2019-04-13T14:22:29.118Z,0.20
2019-04-13T14:25:03.022Z,0.20
2019-04-13T14:27:37.794Z,0.20
2019-04-13T14:30:15.052Z,0.20
2019-04-13T14:32:48.639Z,0.20
2019-04-13T14:35:22.466Z,0.20
2019-04-13T14:37:53.626Z,0.20
2019-04-13T14:40:30.126Z,0.20
2019-04-13T14:42:58.632Z,0.20
2019-04-13T14:45:29.271Z,0.20
2019-04-13T14:48:04.192Z,0.20
2019-04-13T14:50:36.079Z,0.20
2019-04-13T14:53:14.854Z,0.20
2019-04-13T14:55:46.667Z,0.20
2019-04-13T14:58:19.434Z,0.20
2019-04-13T15:00:49.459Z,0.30
2019-04-13T15:03:19.285Z,0.20
2019-04-13T15:05:54.391Z,0.20
2019-04-13T15:08:27.102Z,0.30
2019-04-13T15:11:16.553Z,0.20
2019-04-13T15:13:36.455Z,0.20
2019-04-13T15:16:06.809Z,0.23
2019-04-13T15:18:52.839Z,0.20
2019-04-13T15:21:31.790Z,0.30
2019-04-13T15:24:01.060Z,0.20
2019-04-13T15:26:39.401Z,0.20
2019-04-13T15:29:16.313Z,0.20
2019-04-13T15:31:48.986Z,0.30
2019-04-13T15:34:26.296Z,0.20
2019-04-13T15:36:53.279Z,0.20
2019-04-13T15:39:24.604Z,0.20
2019-04-13T15:42:05.780Z,0.20
2019-04-13T15:44:29.782Z,0.20
2019-04-13T15:47:07.104Z,0.30
2019-04-13T15:49:33.833Z,0.20
2019-04-13T15:52:07.936Z,0.30
2019-04-13T15:54:42.015Z,0.20
2019-04-13T15:57:15.884Z,0.30
2019-04-13T15:59:49.802Z,0.20
2019-04-13T16:02:22.817Z,0.20
2019-04-13T16:04:58.196Z,0.20
2019-04-13T16:07:32.009Z,0.20
2019-04-13T16:10:27.942Z,0.27
2019-04-13T16:13:05.279Z,0.20
2019-04-13T16:15:38.333Z,0.20
2019-04-13T16:18:14.027Z,0.30
2019-04-13T16:20:48.800Z,0.20
2019-04-13T16:23:23.774Z,0.20
2019-04-13T16:25:59.978Z,0.30
2019-04-13T16:28:46.137Z,0.20
2019-04-13T16:31:57.673Z,0.30
2019-04-13T16:34:55.235Z,0.27
2019-04-13T16:37:39.122Z,0.23
2019-04-13T16:40:12.427Z,0.20
2019-04-13T16:42:48.831Z,0.20
2019-04-13T16:45:39.616Z,0.20
2019-04-13T16:49:02.592Z,0.27
2019-04-13T16:51:52.494Z,0.30
2019-04-13T16:54:31.180Z,0.20
2019-04-13T16:57:23.747Z,0.20
2019-04-13T17:00:14.504Z,0.30
2019-04-13T17:03:05.440Z,0.27
2019-04-13T17:05:41.898Z,0.20
2019-04-13T17:08:16.200Z,0.23
2019-04-13T17:10:52.152Z,0.20
2019-04-13T17:13:23.999Z,0.20
2019-04-13T17:15:56.202Z,0.30
2019-04-13T17:18:38.689Z,0.20
2019-04-13T17:21:27.192Z,0.23
2019-04-13T17:24:17.441Z,0.30
2019-04-13T17:27:17.414Z,0.30
2019-04-13T17:30:11.333Z,0.20
2019-04-13T17:32:49.842Z,0.30
2019-04-13T17:35:26.822Z,0.20
2019-04-13T17:38:02.773Z,0.30
2019-04-13T17:40:44.790Z,0.20
2019-04-13T17:43:47.324Z,0.30
2019-04-13T17:46:36.979Z,0.30
2019-04-13T17:49:28.588Z,0.30
2019-04-13T17:52:21.198Z,0.30
2019-04-13T17:55:06.718Z,0.30
2019-04-13T17:58:10.393Z,0.30
2019-04-13T18:01:00.449Z,0.30
2019-04-13T18:04:03.885Z,0.30
2019-04-13T18:06:56.609Z,0.30
2019-04-13T18:09:39.416Z,0.30
2019-04-13T18:12:44.531Z,0.20
2019-04-13T18:15:26.050Z,0.30
2019-04-13T18:18:01.889Z,0.30
2019-04-13T18:20:36.346Z,0.30
2019-04-13T18:23:13.082Z,0.20
2019-04-13T18:25:50.918Z,0.30
2019-04-13T18:28:20.304Z,0.30
2019-04-13T18:30:58.094Z,0.20
2019-04-13T18:33:30.444Z,0.30
2019-04-13T18:36:00.503Z,0.20
2019-04-13T18:38:31.080Z,0.30
2019-04-13T18:41:01.892Z,0.30
2019-04-13T18:43:36.956Z,0.30
2019-04-13T18:46:11.293Z,0.30
2019-04-13T18:48:44.600Z,0.30
2019-04-13T18:51:19.810Z,0.33
2019-04-13T18:53:55.119Z,0.23
2019-04-13T18:56:28.435Z,0.30
2019-04-13T18:58:59.044Z,0.40
2019-04-13T19:01:29.758Z,0.40
2019-04-13T19:04:00.881Z,0.30
2019-04-13T19:06:34.575Z,0.30
2019-04-13T19:09:13.538Z,0.30
2019-04-13T19:11:49.983Z,0.40
2019-04-13T19:14:20.687Z,0.30
2019-04-13T19:16:53.043Z,0.30
2019-04-13T19:19:23.171Z,0.23
2019-04-13T19:21:52.954Z,0.30
2019-04-13T19:24:26.952Z,0.40
2019-04-13T19:27:01.925Z,0.30
2019-04-13T19:29:36.159Z,0.30
2019-04-13T19:32:09.995Z,0.30
2019-04-13T19:34:39.372Z,0.30
2019-04-13T19:37:12.608Z,0.30
2019-04-13T19:39:46.697Z,0.30
2019-04-13T19:42:20.739Z,0.40
2019-04-13T19:44:58.503Z,0.30
2019-04-13T19:47:32.296Z,0.30
2019-04-13T19:50:04.397Z,0.37
2019-04-13T19:52:50.668Z,0.33
2019-04-13T19:55:23.426Z,0.30
2019-04-13T19:57:57.951Z,0.30
2019-04-13T20:00:35.169Z,0.50
2019-04-13T20:03:07.905Z,0.40
2019-04-13T20:05:42.914Z,0.40
2019-04-13T20:08:18.559Z,0.40
2019-04-13T20:10:52.557Z,0.40
2019-04-13T20:13:36.734Z,0.30
2019-04-13T20:16:03.840Z,0.40
2019-04-13T20:18:35.125Z,0.40
2019-04-13T20:21:08.960Z,0.30
2019-04-13T20:23:43.557Z,0.40
2019-04-13T20:26:22.886Z,0.40
2019-04-13T20:28:54.942Z,0.30
2019-04-13T20:31:31.134Z,0.40
2019-04-13T20:34:05.746Z,0.40
2019-04-13T20:36:39.956Z,0.30
2019-04-13T20:39:15.823Z,0.30
2019-04-13T20:41:57.332Z,0.30
2019-04-13T20:44:28.036Z,0.30
2019-04-13T20:46:58.788Z,0.40
2019-04-13T20:49:32.443Z,0.33
2019-04-13T20:52:05.685Z,0.30
2019-04-13T20:54:38.621Z,0.30
2019-04-13T20:57:13.037Z,0.30
2019-04-13T20:59:47.805Z,0.30
2019-04-13T21:02:24.589Z,0.40
2019-04-13T21:04:59.367Z,0.30
2019-04-13T21:07:31.437Z,0.30
2019-04-13T21:10:04.305Z,0.30
2019-04-13T21:12:39.501Z,0.30
2019-04-13T21:15:14.355Z,0.40
2019-04-13T21:17:50.753Z,0.30
2019-04-13T21:20:27.163Z,0.40
2019-04-13T21:23:01.821Z,0.40
2019-04-13T21:25:37.995Z,0.50
2019-04-13T21:28:12.626Z,0.30
2019-04-13T21:30:46.730Z,0.30
2019-04-13T21:33:21.887Z,0.30
2019-04-13T21:35:57.842Z,0.30
2019-04-13T21:38:32.385Z,0.30
2019-04-13T21:41:08.709Z,0.40
2019-04-13T21:43:43.345Z,0.30
2019-04-13T21:46:19.317Z,0.30
2019-04-13T21:48:52.707Z,0.30
2019-04-13T21:51:42.595Z,0.30
2019-04-13T21:54:21.827Z,0.30
2019-04-13T21:56:56.558Z,0.40
2019-04-13T21:59:32.505Z,0.30
2019-04-13T22:02:16.198Z,0.40
2019-04-13T22:04:58.916Z,0.30
2019-04-13T22:07:41.737Z,0.30
2019-04-13T22:10:15.763Z,0.40
2019-04-13T22:12:50.230Z,0.30
2019-04-13T22:15:27.011Z,0.40
2019-04-13T22:18:00.097Z,0.30
2019-04-13T22:20:34.723Z,0.40
2019-04-13T22:23:10.730Z,0.30
2019-04-13T22:25:44.999Z,0.30
2019-04-13T22:28:17.682Z,0.43
2019-04-13T22:31:11.269Z,0.30
2019-04-13T22:33:45.713Z,0.40
2019-04-13T22:36:26.771Z,0.30
2019-04-13T22:38:58.747Z,0.40
2019-04-13T22:41:30.960Z,0.30
2019-04-13T22:44:05.183Z,0.40
2019-04-13T22:46:39.236Z,0.30
2019-04-13T22:49:21.438Z,0.33
2019-04-13T22:52:09.260Z,0.40
2019-04-13T22:54:49.621Z,0.20
2019-04-13T22:57:41.392Z,0.30
2019-04-13T23:00:19.510Z,0.30
2019-04-13T23:02:52.483Z,0.30
2019-04-13T23:05:28.606Z,0.37
2019-04-13T23:08:03.040Z,0.30
2019-04-13T23:10:37.605Z,0.40
2019-04-13T23:13:12.867Z,0.30
2019-04-13T23:15:47.248Z,0.40
2019-04-13T23:18:23.263Z,0.20
2019-04-13T23:20:56.184Z,0.30
2019-04-13T23:23:31.167Z,0.30
2019-04-13T23:26:07.957Z,0.30
2019-04-13T23:28:42.395Z,0.30
2019-04-13T23:31:21.513Z,0.30
2019-04-13T23:33:56.311Z,0.30
2019-04-13T23:36:29.226Z,0.30
2019-04-13T23:39:04.673Z,0.30
2019-04-13T23:41:38.928Z,0.30
2019-04-13T23:44:14.087Z,0.30
2019-04-13T23:46:48.278Z,0.30
2019-04-13T23:49:23.101Z,0.40
2019-04-13T23:51:58.113Z,0.40
2019-04-13T23:54:33.091Z,0.30
2019-04-13T23:57:16.718Z,0.30
